Time;durP1;ratioP1;P1;durP2;ratioP2;P2;SDS_P1;SDS_P2;PMS_P1;PMS_P2;Temp;Humidity;BMP_temperature;BMP_pressure;BME280_temperature;BME280_humidity;BME280_pressure;Samples;Min_cycle;Max_cycle;Signal;HPM_P1;HPM_P2
2022/09/17 00:00:55;;;;;;;11.10;3.60;;;10.90;99.90;;;;;;5246209;28;21259;-51
2022/09/17 00:03:27;;;;;;;3.20;2.83;;;11.00;99.90;;;;;;5239521;28;20436;-49
2022/09/17 00:06:00;;;;;;;8.60;3.90;;;11.00;99.90;;;;;;5255747;28;20502;-51
2022/09/17 00:08:32;;;;;;;11.37;4.63;;;11.00;99.90;;;;;;5243403;28;20436;-52
2022/09/17 00:11:14;;;;;;;6.83;3.40;;;11.00;99.90;;;;;;5239364;28;20830;-52
2022/09/17 00:13:44;;;;;;;4.10;3.67;;;11.00;99.90;;;;;;5237274;28;20470;-51
2022/09/17 00:16:32;;;;;;;12.20;3.70;;;11.00;99.90;;;;;;5246141;28;20532;-48
2022/09/17 00:19:05;;;;;;;11.00;3.20;;;11.10;99.90;;;;;;5241707;28;20184;-50
2022/09/17 00:21:35;;;;;;;5.30;3.40;;;11.10;99.90;;;;;;5245917;28;20563;-50
2022/09/17 00:24:06;;;;;;;12.50;4.00;;;11.10;99.90;;;;;;5239764;28;20842;-52
2022/09/17 00:26:37;;;;;;;10.37;3.23;;;11.00;99.90;;;;;;5235280;28;20221;-50
2022/09/17 00:29:09;;;;;;;7.50;3.37;;;11.00;99.90;;;;;;5235297;28;20529;-50
2022/09/17 00:31:39;;;;;;;5.90;2.43;;;11.10;99.90;;;;;;5239048;28;20228;-51
2022/09/17 00:34:11;;;;;;;5.47;3.10;;;11.10;99.90;;;;;;5245111;28;20464;-51
2022/09/17 00:36:41;;;;;;;7.97;3.17;;;11.10;99.90;;;;;;5243190;28;20288;-52
2022/09/17 00:39:14;;;;;;;7.47;3.30;;;11.10;99.90;;;;;;5244260;28;21015;-51
2022/09/17 00:41:45;;;;;;;7.80;2.83;;;11.10;99.90;;;;;;5247822;28;20181;-51
2022/09/17 00:44:39;;;;;;;12.13;4.07;;;11.10;99.90;;;;;;5227340;28;20436;-52
2022/09/17 00:47:35;;;;;;;10.57;3.80;;;11.20;99.90;;;;;;5237870;28;20686;-49
2022/09/17 00:50:11;;;;;;;5.77;3.10;;;11.20;99.90;;;;;;5248200;28;20817;-49
2022/09/17 00:52:48;;;;;;;11.17;3.20;;;11.10;99.90;;;;;;5244414;28;20439;-53
2022/09/17 00:55:22;;;;;;;14.90;4.43;;;11.10;99.90;;;;;;5250361;28;21083;-49
2022/09/17 00:57:57;;;;;;;12.97;3.67;;;11.20;99.90;;;;;;5250611;28;20929;-49
2022/09/17 01:00:29;;;;;;;5.37;2.77;;;11.20;99.90;;;;;;5244644;28;20424;-52
2022/09/17 01:03:00;;;;;;;5.10;2.83;;;11.10;99.90;;;;;;5243534;28;20489;-52
2022/09/17 01:06:09;;;;;;;7.13;3.80;;;11.20;99.90;;;;;;5238859;28;20456;-51
2022/09/17 01:09:04;;;;;;;7.20;2.83;;;11.20;99.90;;;;;;5243373;28;20221;-48
2022/09/17 01:12:01;;;;;;;8.07;3.10;;;11.20;99.90;;;;;;5244612;28;20876;-49
2022/09/17 01:14:40;;;;;;;13.23;3.40;;;11.20;99.90;;;;;;5250626;28;20620;-50
2022/09/17 01:17:28;;;;;;;11.20;2.80;;;11.20;99.90;;;;;;5239172;28;20519;-52
2022/09/17 01:20:37;;;;;;;11.53;2.70;;;11.20;99.90;;;;;;5249030;28;20432;-50
2022/09/17 01:23:50;;;;;;;5.80;2.43;;;11.20;99.90;;;;;;5227050;28;20438;-51
2022/09/17 01:26:53;;;;;;;8.53;1.97;;;11.20;99.90;;;;;;5239474;28;20556;-50
2022/09/17 01:29:40;;;;;;;11.50;2.57;;;11.20;99.90;;;;;;5248829;28;20523;-49
2022/09/17 01:32:41;;;;;;;10.83;2.47;;;11.20;99.90;;;;;;5244374;28;20812;-48
2022/09/17 01:35:22;;;;;;;3.40;2.03;;;11.20;99.90;;;;;;5243910;28;20479;-52
2022/09/17 01:38:10;;;;;;;7.43;2.67;;;11.20;99.90;;;;;;5249528;28;20501;-49
2022/09/17 01:41:01;;;;;;;11.87;3.13;;;11.20;99.90;;;;;;5238205;28;20429;-50
2022/09/17 01:43:43;;;;;;;6.73;2.33;;;11.30;99.90;;;;;;5246081;28;20456;-50
2022/09/17 01:46:44;;;;;;;5.10;2.50;;;11.30;99.90;;;;;;5244137;28;20457;-49
2022/09/17 01:49:15;;;;;;;9.07;2.40;;;11.30;99.90;;;;;;5226971;28;20452;-49
2022/09/17 01:51:48;;;;;;;8.03;3.57;;;11.30;99.90;;;;;;5250209;28;20440;-52
2022/09/17 01:54:24;;;;;;;8.13;2.07;;;11.30;99.90;;;;;;5232509;28;20472;-47
2022/09/17 01:57:00;;;;;;;8.93;3.00;;;11.30;99.90;;;;;;5255286;28;20451;-48
2022/09/17 01:59:47;;;;;;;5.40;2.30;;;11.30;99.90;;;;;;5255049;28;20442;-50
2022/09/17 02:02:35;;;;;;;8.57;2.37;;;11.30;99.90;;;;;;5239731;28;20444;-48
2022/09/17 02:05:11;;;;;;;5.07;3.00;;;11.40;99.90;;;;;;5238396;28;20459;-48
2022/09/17 02:07:46;;;;;;;4.60;2.23;;;11.40;99.90;;;;;;5244444;28;20951;-47
2022/09/17 02:10:21;;;;;;;9.10;3.63;;;11.30;99.90;;;;;;5245104;28;20451;-49
2022/09/17 02:13:07;;;;;;;6.50;2.73;;;11.50;99.90;;;;;;5248825;28;20469;-47
2022/09/17 02:15:42;;;;;;;8.07;2.93;;;11.50;99.90;;;;;;5232729;28;20502;-47
2022/09/17 02:18:15;;;;;;;4.80;2.73;;;11.50;99.90;;;;;;5249714;28;20578;-47
2022/09/17 02:20:51;;;;;;;8.33;3.00;;;11.50;99.90;;;;;;5238425;28;20917;-47
2022/09/17 02:23:28;;;;;;;7.57;3.00;;;11.60;99.90;;;;;;5234762;28;20435;-48
2022/09/17 02:26:16;;;;;;;9.63;5.17;;;11.70;99.90;;;;;;5235095;28;20531;-48
2022/09/17 02:28:49;;;;;;;7.97;4.63;;;11.70;99.90;;;;;;5244246;28;20436;-49
2022/09/17 02:31:20;;;;;;;14.00;6.10;;;11.60;99.90;;;;;;5242170;28;20429;-47
2022/09/17 02:33:55;;;;;;;24.00;11.23;;;11.70;99.90;;;;;;5249527;28;20494;-47
2022/09/17 02:36:27;;;;;;;24.30;11.17;;;11.70;99.90;;;;;;5249203;28;20241;-47
2022/09/17 02:39:00;;;;;;;17.70;9.67;;;11.70;99.90;;;;;;5259686;28;20440;-47
2022/09/17 02:42:05;;;;;;;10.03;5.97;;;11.70;99.90;;;;;;5244791;28;20448;-48
2022/09/17 02:45:10;;;;;;;11.03;6.20;;;11.70;99.90;;;;;;5261211;28;20431;-46
2022/09/17 02:47:56;;;;;;;16.47;7.63;;;11.70;99.90;;;;;;5238266;28;20427;-48
2022/09/17 02:50:32;;;;;;;19.57;7.63;;;11.70;99.90;;;;;;5243254;28;20440;-48
2022/09/17 02:53:37;;;;;;;10.60;7.53;;;11.70;99.90;;;;;;5246712;28;20472;-48
2022/09/17 02:56:28;;;;;;;19.73;9.20;;;11.70;99.90;;;;;;5251428;28;20554;-49
2022/09/17 02:59:23;;;;;;;15.43;9.23;;;11.80;99.90;;;;;;5241203;28;20442;-50
2022/09/17 03:02:18;;;;;;;12.70;7.60;;;11.80;99.90;;;;;;5237463;28;20440;-48
2022/09/17 03:04:51;;;;;;;21.33;9.10;;;11.80;99.90;;;;;;5234717;28;20516;-48
2022/09/17 03:07:22;;;;;;;12.00;7.30;;;11.80;99.90;;;;;;5257303;28;20447;-47
2022/09/17 03:09:53;;;;;;;22.47;8.33;;;11.80;99.90;;;;;;5250570;28;20431;-47
2022/09/17 03:12:24;;;;;;;16.67;8.00;;;11.80;99.90;;;;;;5238278;28;20977;-48
2022/09/17 03:14:55;;;;;;;13.47;6.70;;;11.80;99.90;;;;;;5234822;28;20193;-46
2022/09/17 03:17:25;;;;;;;14.40;9.30;;;11.90;99.90;;;;;;5239106;28;20428;-48
2022/09/17 03:19:56;;;;;;;20.73;8.10;;;11.90;99.90;;;;;;5250527;28;20607;-47
2022/09/17 03:22:26;;;;;;;16.43;6.27;;;11.90;99.90;;;;;;5243480;28;20197;-47
2022/09/17 03:24:57;;;;;;;15.27;7.50;;;11.90;99.90;;;;;;5253763;28;20185;-50
2022/09/17 03:27:28;;;;;;;14.93;7.47;;;11.90;99.90;;;;;;5234596;28;20183;-47
2022/09/17 03:29:58;;;;;;;11.40;6.30;;;11.90;99.90;;;;;;5246785;28;20209;-47
2022/09/17 03:32:29;;;;;;;12.60;5.60;;;12.00;99.90;;;;;;5245976;28;20189;-48
2022/09/17 03:34:59;;;;;;;16.00;5.00;;;12.00;99.90;;;;;;5245512;28;20206;-48
2022/09/17 03:37:30;;;;;;;12.47;4.90;;;12.00;99.90;;;;;;5246987;28;20549;-48
2022/09/17 03:40:01;;;;;;;9.40;4.50;;;12.00;99.90;;;;;;5239652;28;20178;-47
2022/09/17 03:42:31;;;;;;;17.60;5.20;;;11.90;99.90;;;;;;5246974;28;20182;-49
2022/09/17 03:45:02;;;;;;;15.57;4.40;;;12.00;99.90;;;;;;5239561;28;20524;-48
2022/09/17 03:47:33;;;;;;;11.17;4.37;;;12.00;99.90;;;;;;5243290;28;20213;-50
2022/09/17 03:50:05;;;;;;;6.47;3.83;;;12.00;99.90;;;;;;5241219;28;20186;-48
2022/09/17 03:52:35;;;;;;;9.93;3.90;;;12.00;99.90;;;;;;5242086;28;20310;-48
2022/09/17 03:55:06;;;;;;;6.03;3.33;;;12.00;99.90;;;;;;5245130;28;20633;-50
2022/09/17 03:57:37;;;;;;;12.13;2.93;;;12.10;99.90;;;;;;5232109;28;20239;-49
2022/09/17 04:00:08;;;;;;;12.97;2.90;;;12.10;99.90;;;;;;5237529;28;20444;-51
2022/09/17 04:02:39;;;;;;;9.17;2.77;;;12.10;99.90;;;;;;5240145;28;20186;-47
2022/09/17 04:05:09;;;;;;;14.53;3.03;;;12.10;99.90;;;;;;5239815;28;20518;-48
2022/09/17 04:07:40;;;;;;;9.30;2.93;;;12.00;99.90;;;;;;5232549;28;20297;-50
2022/09/17 04:10:11;;;;;;;9.67;2.90;;;12.00;99.90;;;;;;5242713;28;20187;-52
2022/09/17 04:12:41;;;;;;;8.03;2.27;;;12.10;99.90;;;;;;5237620;28;20235;-51
2022/09/17 04:15:12;;;;;;;15.70;2.77;;;12.10;99.90;;;;;;5250724;28;20210;-52
2022/09/17 04:17:43;;;;;;;7.43;2.90;;;12.10;99.90;;;;;;5246842;28;20231;-48
2022/09/17 04:20:13;;;;;;;7.13;2.27;;;12.10;99.90;;;;;;5241874;28;20297;-51
2022/09/17 04:22:44;;;;;;;8.53;3.77;;;12.10;99.90;;;;;;5239280;28;20654;-52
2022/09/17 04:25:14;;;;;;;11.17;3.00;;;12.10;99.90;;;;;;5239371;28;20714;-52
2022/09/17 04:27:46;;;;;;;6.77;2.70;;;12.10;99.90;;;;;;5255811;28;20189;-51
2022/09/17 04:30:17;;;;;;;10.33;2.90;;;12.00;99.90;;;;;;5235039;28;20252;-51
2022/09/17 04:32:47;;;;;;;9.33;2.20;;;12.10;99.90;;;;;;5237794;28;20464;-51
2022/09/17 04:35:18;;;;;;;5.60;2.30;;;12.10;99.90;;;;;;5240657;28;20507;-50
2022/09/17 04:37:56;;;;;;;4.47;2.53;;;12.00;99.90;;;;;;5241553;28;20178;-51
2022/09/17 04:40:27;;;;;;;13.67;2.87;;;12.10;99.90;;;;;;5253331;28;20186;-51
2022/09/17 04:42:58;;;;;;;8.13;2.37;;;12.10;99.90;;;;;;5245125;28;20420;-50
2022/09/17 04:45:32;;;;;;;8.93;2.47;;;12.10;99.90;;;;;;5242901;28;20207;-52
2022/09/17 04:48:03;;;;;;;5.20;2.47;;;12.10;99.90;;;;;;5243145;28;20997;-52
2022/09/17 04:50:33;;;;;;;3.80;2.07;;;12.20;99.90;;;;;;5245861;28;20429;-50
2022/09/17 04:53:04;;;;;;;13.00;2.10;;;12.20;99.90;;;;;;5249168;28;20793;-51
2022/09/17 04:55:34;;;;;;;16.20;2.53;;;12.10;99.90;;;;;;5243118;28;20294;-52
2022/09/17 04:58:05;;;;;;;15.47;2.80;;;12.20;99.90;;;;;;5242977;28;20593;-53
2022/09/17 05:00:36;;;;;;;9.23;2.90;;;12.20;99.90;;;;;;5240377;28;20241;-52
2022/09/17 05:03:07;;;;;;;6.90;2.60;;;12.20;99.90;;;;;;5224588;28;20190;-51
2022/09/17 05:05:38;;;;;;;9.60;2.57;;;12.20;99.90;;;;;;5243119;28;20500;-51
2022/09/17 05:08:08;;;;;;;7.80;2.40;;;12.30;99.90;;;;;;5244796;28;20261;-51
2022/09/17 05:10:39;;;;;;;15.57;3.10;;;12.30;99.90;;;;;;5251000;28;20194;-50
2022/09/17 05:13:11;;;;;;;13.93;2.93;;;12.30;99.90;;;;;;5246983;28;20201;-52
2022/09/17 05:15:41;;;;;;;11.00;3.27;;;12.40;99.90;;;;;;5242006;28;20825;-52
2022/09/17 05:18:12;;;;;;;9.80;2.20;;;12.40;99.90;;;;;;5240799;28;20185;-51
2022/09/17 05:20:43;;;;;;;9.53;3.23;;;12.40;99.90;;;;;;5231182;28;20512;-46
2022/09/17 05:23:13;;;;;;;6.10;2.20;;;12.40;99.90;;;;;;5227071;28;20189;-49
2022/09/17 05:25:44;;;;;;;4.57;2.27;;;12.50;99.90;;;;;;5236927;28;20212;-52
2022/09/17 05:28:15;;;;;;;3.30;3.00;;;12.40;99.90;;;;;;5237517;28;20193;-51
2022/09/17 05:30:45;;;;;;;4.70;2.20;;;12.40;99.90;;;;;;5250609;28;20190;-51
2022/09/17 05:33:16;;;;;;;5.83;2.40;;;12.50;99.90;;;;;;5243809;28;20236;-51
2022/09/17 05:35:46;;;;;;;8.97;2.73;;;12.50;99.90;;;;;;5247007;28;20575;-51
2022/09/17 05:38:17;;;;;;;10.20;2.60;;;12.50;99.90;;;;;;5245235;28;20181;-52
2022/09/17 05:40:48;;;;;;;11.10;3.60;;;12.60;99.90;;;;;;5243753;28;20534;-52
2022/09/17 05:43:18;;;;;;;17.77;3.30;;;12.70;99.90;;;;;;5241737;28;20441;-51
2022/09/17 05:45:49;;;;;;;5.50;2.70;;;12.70;99.90;;;;;;5233967;28;20640;-52
2022/09/17 05:48:20;;;;;;;9.73;2.77;;;12.80;99.90;;;;;;5246939;28;20312;-52
2022/09/17 05:50:50;;;;;;;11.73;3.30;;;12.80;99.90;;;;;;5229774;28;20277;-50
2022/09/17 05:53:22;;;;;;;9.43;3.37;;;12.90;99.90;;;;;;5231968;28;20197;-51
2022/09/17 05:55:58;;;;;;;8.87;2.50;;;12.80;99.90;;;;;;5236737;28;20607;-52
2022/09/17 05:58:31;;;;;;;8.57;2.40;;;12.80;99.90;;;;;;5245386;28;20432;-50
2022/09/17 06:01:02;;;;;;;9.00;2.80;;;12.80;99.90;;;;;;5247797;28;20448;-52
2022/09/17 06:03:32;;;;;;;7.70;2.30;;;12.90;99.90;;;;;;5247322;28;20437;-49
2022/09/17 06:06:03;;;;;;;7.07;2.53;;;13.00;99.90;;;;;;5249393;28;20213;-51
2022/09/17 06:08:36;;;;;;;10.87;2.80;;;13.00;99.90;;;;;;5244444;28;20247;-51
2022/09/17 06:11:07;;;;;;;6.77;2.37;;;13.10;99.90;;;;;;5240941;28;20547;-51
2022/09/17 06:13:38;;;;;;;14.53;3.37;;;13.20;99.90;;;;;;5237404;28;20440;-51
2022/09/17 06:16:08;;;;;;;8.70;2.67;;;13.20;99.90;;;;;;5248091;28;20498;-49
2022/09/17 06:18:39;;;;;;;11.07;2.80;;;13.40;99.90;;;;;;5243160;28;20239;-52
2022/09/17 06:21:09;;;;;;;11.70;2.83;;;13.30;99.90;;;;;;5249480;28;20190;-52
2022/09/17 06:23:42;;;;;;;23.40;4.80;;;13.30;99.90;;;;;;5240023;28;20190;-52
2022/09/17 06:26:14;;;;;;;14.73;4.13;;;13.30;99.90;;;;;;5244059;28;20198;-50
2022/09/17 06:28:45;;;;;;;10.90;3.13;;;13.40;99.90;;;;;;5242513;28;20948;-52
2022/09/17 06:31:15;;;;;;;16.43;3.23;;;13.40;99.90;;;;;;5249458;28;20437;-50
2022/09/17 06:33:47;;;;;;;11.37;3.20;;;13.30;99.90;;;;;;5246545;28;20182;-51
2022/09/17 06:36:17;;;;;;;5.30;2.70;;;13.40;99.90;;;;;;5242502;28;20216;-51
2022/09/17 06:38:48;;;;;;;14.83;3.87;;;13.40;99.90;;;;;;5241408;28;20463;-52
2022/09/17 06:41:18;;;;;;;16.87;2.87;;;13.40;99.90;;;;;;5242913;28;20175;-46
2022/09/17 06:43:53;;;;;;;27.70;3.53;;;13.30;99.90;;;;;;5241923;28;20183;-46
2022/09/17 06:46:23;;;;;;;12.10;4.20;;;13.40;99.90;;;;;;5245656;28;20205;-47
2022/09/17 06:48:54;;;;;;;12.33;3.37;;;13.60;99.90;;;;;;5247002;28;20460;-48
2022/09/17 06:51:24;;;;;;;19.10;4.00;;;13.70;99.90;;;;;;5246275;28;20174;-48
2022/09/17 06:53:55;;;;;;;15.43;4.10;;;13.70;99.90;;;;;;5245575;28;20233;-47
2022/09/17 06:56:26;;;;;;;20.13;3.87;;;13.70;99.90;;;;;;5256438;28;20202;-47
2022/09/17 06:58:56;;;;;;;16.77;4.20;;;13.60;99.90;;;;;;5245814;28;20488;-48
2022/09/17 07:01:27;;;;;;;23.67;4.53;;;13.60;99.90;;;;;;5248381;28;20651;-47
2022/09/17 07:03:57;;;;;;;14.97;3.67;;;13.50;99.90;;;;;;5243111;28;20654;-48
2022/09/17 07:06:28;;;;;;;8.23;3.47;;;13.50;99.90;;;;;;5256066;28;20305;-47
2022/09/17 07:08:58;;;;;;;19.33;3.90;;;13.50;99.90;;;;;;5245167;28;20190;-52
2022/09/17 07:11:30;;;;;;;14.53;4.03;;;13.50;99.90;;;;;;5247128;28;20190;-49
2022/09/17 07:14:01;;;;;;;22.33;5.10;;;13.40;99.90;;;;;;5247430;28;20600;-47
2022/09/17 07:16:33;;;;;;;20.53;5.43;;;13.40;99.90;;;;;;5248468;28;20460;-46
2022/09/17 07:19:04;;;;;;;17.80;4.10;;;13.40;99.90;;;;;;5243093;28;20178;-48
2022/09/17 07:21:35;;;;;;;9.23;3.30;;;13.40;99.90;;;;;;5244507;28;20970;-47
2022/09/17 07:24:06;;;;;;;7.97;3.33;;;13.30;99.90;;;;;;5226604;28;20178;-46
2022/09/17 07:26:36;;;;;;;15.53;4.50;;;13.30;99.90;;;;;;5260364;28;20233;-46
2022/09/17 07:29:07;;;;;;;9.30;3.50;;;13.30;99.90;;;;;;5245932;28;20182;-46
2022/09/17 07:31:37;;;;;;;21.33;4.00;;;13.40;99.90;;;;;;5244839;28;20182;-47
2022/09/17 07:34:09;;;;;;;13.30;3.33;;;13.50;99.90;;;;;;5240732;28;20208;-49
2022/09/17 07:36:42;;;;;;;26.00;4.17;;;13.70;99.90;;;;;;5228802;28;20279;-46
2022/09/17 07:39:12;;;;;;;10.50;3.70;;;14.00;99.90;;;;;;5229832;28;20444;-46
2022/09/17 07:41:43;;;;;;;8.13;3.30;;;14.00;99.90;;;;;;5238576;28;20428;-47
2022/09/17 07:44:13;;;;;;;7.63;2.50;;;14.10;99.90;;;;;;5238158;28;20189;-46
2022/09/17 07:46:44;;;;;;;9.40;2.30;;;14.20;99.90;;;;;;5243985;28;20210;-47
2022/09/17 07:49:15;;;;;;;9.13;2.73;;;14.10;99.90;;;;;;5236482;28;20336;-49
2022/09/17 07:51:45;;;;;;;29.33;3.40;;;14.20;99.90;;;;;;5235702;28;20261;-47
2022/09/17 07:54:16;;;;;;;21.67;5.63;;;14.30;99.90;;;;;;5239610;28;20464;-48
2022/09/17 07:56:47;;;;;;;10.77;3.20;;;14.10;99.90;;;;;;5239361;28;20214;-47
2022/09/17 07:59:18;;;;;;;13.33;2.40;;;14.00;99.90;;;;;;5244095;28;20329;-47
2022/09/17 08:01:49;;;;;;;18.03;3.40;;;14.10;99.90;;;;;;5240471;28;20181;-47
2022/09/17 08:04:20;;;;;;;16.73;3.50;;;14.10;99.90;;;;;;5243373;28;20440;-51
2022/09/17 08:06:51;;;;;;;14.67;2.60;;;14.20;99.90;;;;;;5243131;28;20470;-51
2022/09/17 08:09:22;;;;;;;10.73;3.33;;;14.20;99.90;;;;;;5250570;28;20646;-51
2022/09/17 08:11:52;;;;;;;10.23;2.20;;;14.20;99.90;;;;;;5260926;28;20202;-50
2022/09/17 08:14:23;;;;;;;10.83;3.10;;;14.30;99.90;;;;;;5234052;28;20476;-49
2022/09/17 08:16:54;;;;;;;9.20;2.30;;;14.50;99.90;;;;;;5238707;28;20198;-51
2022/09/17 08:19:24;;;;;;;14.23;3.60;;;14.70;99.90;;;;;;5239747;28;20186;-52
2022/09/17 08:21:55;;;;;;;10.87;3.27;;;14.90;99.90;;;;;;5244273;28;20217;-52
2022/09/17 08:24:26;;;;;;;13.70;3.10;;;15.20;99.90;;;;;;5231320;28;20190;-51
2022/09/17 08:26:57;;;;;;;12.13;2.60;;;15.50;99.90;;;;;;5241235;28;20198;-55
2022/09/17 08:29:27;;;;;;;11.17;2.83;;;15.90;99.90;;;;;;5249356;28;20577;-52
2022/09/17 08:31:58;;;;;;;13.50;2.77;;;16.00;99.90;;;;;;5243902;28;20716;-52
2022/09/17 08:34:28;;;;;;;10.90;2.83;;;16.10;99.90;;;;;;5244596;28;20206;-51
2022/09/17 08:36:59;;;;;;;13.20;2.97;;;16.30;99.90;;;;;;5236729;28;20201;-54
2022/09/17 08:39:29;;;;;;;14.23;3.10;;;16.10;99.90;;;;;;5238318;28;20182;-47
2022/09/17 08:42:19;;;;;;;8.70;2.30;;;16.10;99.90;;;;;;5234859;28;20257;-53
2022/09/17 08:44:51;;;;;;;9.93;2.97;;;16.10;99.90;;;;;;5245038;28;20194;-52
2022/09/17 08:47:30;;;;;;;5.17;2.40;;;15.90;99.90;;;;;;5239807;28;20804;-51
2022/09/17 08:50:03;;;;;;;4.23;1.77;;;15.60;99.90;;;;;;5241379;28;20478;-50
2022/09/17 08:52:55;;;;;;;9.67;2.10;;;15.50;99.90;;;;;;5236798;28;20455;-51
2022/09/17 08:55:32;;;;;;;7.87;2.60;;;15.90;99.90;;;;;;5235952;28;20861;-55
2022/09/17 08:58:18;;;;;;;5.20;2.20;;;16.10;99.90;;;;;;5240589;28;21037;-48
2022/09/17 09:01:14;;;;;;;7.93;2.40;;;16.20;99.90;;;;;;5239304;28;20471;-50
2022/09/17 09:03:45;;;;;;;6.07;2.17;;;15.90;99.90;;;;;;5245390;28;20432;-50
2022/09/17 09:06:18;;;;;;;5.43;1.70;;;15.90;99.90;;;;;;5228755;28;21018;-52
2022/09/17 09:08:55;;;;;;;4.77;2.00;;;15.80;99.90;;;;;;5239746;28;20618;-52
2022/09/17 09:11:29;;;;;;;15.90;2.53;;;15.50;99.90;;;;;;5236396;28;20440;-52
2022/09/17 09:14:18;;;;;;;10.57;2.47;;;15.60;99.90;;;;;;5240548;28;20499;-49
2022/09/17 09:16:51;;;;;;;6.43;2.27;;;15.60;99.90;;;;;;5245048;28;20539;-52
2022/09/17 09:19:29;;;;;;;6.53;2.40;;;15.90;99.90;;;;;;5243532;28;20844;-52
2022/09/17 09:22:02;;;;;;;3.47;2.27;;;16.30;99.90;;;;;;5245362;28;20444;-49
2022/09/17 09:24:41;;;;;;;8.33;2.73;;;16.60;99.90;;;;;;5243900;28;20497;-48
2022/09/17 09:27:26;;;;;;;9.23;3.10;;;16.70;99.90;;;;;;5236993;28;20578;-55
2022/09/17 09:30:05;;;;;;;5.37;2.43;;;16.40;99.90;;;;;;5232074;28;21228;-53
2022/09/17 09:32:56;;;;;;;8.70;2.97;;;16.20;99.90;;;;;;5247788;28;20530;-53
2022/09/17 09:35:31;;;;;;;8.80;2.57;;;16.00;99.90;;;;;;5247514;28;20988;-53
2022/09/17 09:38:23;;;;;;;5.30;2.67;;;15.70;99.90;;;;;;5236082;28;20894;-50
2022/09/17 09:41:08;;;;;;;15.33;2.30;;;15.50;99.90;;;;;;5251746;28;20437;-50
2022/09/17 09:43:46;;;;;;;14.40;2.53;;;15.90;99.90;;;;;;5229328;28;20467;-52
2022/09/17 09:46:23;;;;;;;4.17;2.30;;;16.50;99.90;;;;;;5232408;28;21214;-52
2022/09/17 09:49:28;;;;;;;8.10;2.67;;;16.20;99.90;;;;;;5234870;28;21641;-54
2022/09/17 09:52:14;;;;;;;14.23;2.57;;;15.90;99.90;;;;;;5229450;28;20429;-53
2022/09/17 09:55:22;;;;;;;5.60;1.83;;;15.70;99.90;;;;;;5241071;28;20510;-51
2022/09/17 09:58:08;;;;;;;5.20;2.20;;;15.90;99.90;;;;;;5234325;28;20909;-54
2022/09/17 10:00:42;;;;;;;17.57;2.20;;;16.20;99.90;;;;;;5239092;28;20477;-53
2022/09/17 10:03:20;;;;;;;14.70;2.30;;;16.30;99.90;;;;;;5238670;28;20442;-52
2022/09/17 10:06:05;;;;;;;6.37;2.40;;;16.50;99.90;;;;;;5239149;28;20501;-48
2022/09/17 10:08:48;;;;;;;7.93;2.50;;;16.50;99.90;;;;;;5232863;28;20547;-47
2022/09/17 10:11:22;;;;;;;11.20;2.83;;;16.30;99.90;;;;;;5238201;28;21206;-47
2022/09/17 10:14:22;;;;;;;10.40;3.40;;;16.20;99.90;;;;;;5233258;28;20519;-52
2022/09/17 10:17:20;;;;;;;3.53;2.20;;;16.20;99.90;;;;;;5236098;28;20459;-51
2022/09/17 10:20:10;;;;;;;8.57;5.03;;;16.50;99.90;;;;;;5241692;28;20430;-50
2022/09/17 10:22:46;;;;;;;5.70;2.20;;;16.70;99.90;;;;;;5241167;28;20543;-46
2022/09/17 10:25:30;;;;;;;9.90;3.20;;;16.60;99.90;;;;;;5232730;28;20602;-47
2022/09/17 10:28:04;;;;;;;6.77;3.30;;;16.40;99.90;;;;;;5239160;28;20991;-47
2022/09/17 10:30:35;;;;;;;6.50;2.27;;;16.30;99.90;;;;;;5243824;28;20458;-48
2022/09/17 10:33:23;;;;;;;4.00;2.53;;;16.20;99.90;;;;;;5223306;28;20443;-49
2022/09/17 10:36:02;;;;;;;10.70;2.10;;;16.60;99.90;;;;;;5239241;28;20321;-47
2022/09/17 10:38:43;;;;;;;11.93;1.60;;;16.40;99.30;;;;;;5241211;28;20437;-48
2022/09/17 10:41:16;;;;;;;7.63;2.13;;;16.00;99.90;;;;;;5241620;28;20441;-47
2022/09/17 10:43:50;;;;;;;23.90;2.60;;;15.60;99.90;;;;;;5239690;28;20801;-48
2022/09/17 10:46:32;;;;;;;21.33;3.20;;;15.10;99.90;;;;;;5243488;28;20478;-46
2022/09/17 10:49:21;;;;;;;7.00;3.33;;;14.80;99.90;;;;;;5245178;28;20459;-48
2022/09/17 10:52:18;;;;;;;5.40;4.00;;;14.80;99.90;;;;;;5236812;28;20435;-49
2022/09/17 10:55:13;;;;;;;3.70;2.57;;;14.80;99.90;;;;;;5235528;28;20451;-50
2022/09/17 10:57:55;;;;;;;13.83;3.00;;;14.80;99.90;;;;;;5237055;28;20444;-48
2022/09/17 11:00:37;;;;;;;12.97;4.63;;;15.00;99.90;;;;;;5240745;28;20444;-49
2022/09/17 11:03:24;;;;;;;8.77;2.60;;;15.40;99.90;;;;;;5242311;28;20553;-51
2022/09/17 11:06:20;;;;;;;11.37;2.67;;;15.80;99.90;;;;;;5239966;28;20952;-49
2022/09/17 11:09:17;;;;;;;8.30;2.23;;;16.10;99.90;;;;;;5241424;28;21008;-50
2022/09/17 11:12:12;;;;;;;13.00;3.70;;;16.30;99.90;;;;;;5243972;28;20514;-51
2022/09/17 11:14:48;;;;;;;12.70;3.20;;;16.50;99.90;;;;;;5231329;28;20476;-50
2022/09/17 11:17:49;;;;;;;4.37;2.27;;;16.70;99.90;;;;;;5225444;28;20525;-51
2022/09/17 11:20:40;;;;;;;6.70;2.00;;;16.50;99.90;;;;;;5221511;28;20443;-51
2022/09/17 11:23:33;;;;;;;27.20;2.37;;;16.40;99.90;;;;;;5240299;28;21034;-48
2022/09/17 11:26:26;;;;;;;4.30;1.47;;;16.50;99.80;;;;;;5226629;28;20468;-49
2022/09/17 11:29:15;;;;;;;7.30;3.50;;;16.80;98.10;;;;;;5231108;28;20534;-49
2022/09/17 11:32:02;;;;;;;5.00;2.20;;;17.00;95.40;;;;;;5237136;28;20489;-48
2022/09/17 11:35:07;;;;;;;2.23;1.87;;;17.30;93.90;;;;;;5234285;28;20471;-51
2022/09/17 11:38:07;;;;;;;5.03;1.60;;;17.10;91.60;;;;;;5236543;28;20500;-50
2022/09/17 11:40:51;;;;;;;7.70;3.20;;;17.00;91.60;;;;;;5241513;28;20437;-49
2022/09/17 11:43:28;;;;;;;2.60;1.60;;;16.60;91.10;;;;;;5235543;28;20814;-51
2022/09/17 11:46:12;;;;;;;6.13;2.60;;;16.20;94.20;;;;;;5242864;28;20507;-53
2022/09/17 11:48:48;;;;;;;18.13;6.00;;;15.70;98.30;;;;;;5241698;28;20445;-48
2022/09/17 11:51:44;;;;;;;9.93;3.00;;;15.40;99.90;;;;;;5239763;28;20428;-51
2022/09/17 11:54:26;;;;;;;3.43;1.90;;;15.40;99.90;;;;;;5248079;28;20468;-51
2022/09/17 11:57:14;;;;;;;2.37;1.67;;;15.50;99.90;;;;;;5242901;28;20456;-49
2022/09/17 12:00:18;;;;;;;4.03;2.63;;;15.60;99.90;;;;;;5237247;28;20433;-50
2022/09/17 12:03:00;;;;;;;6.50;2.37;;;15.70;99.90;;;;;;5240312;28;20435;-55
2022/09/17 12:05:55;;;;;;;2.17;1.50;;;15.80;99.90;;;;;;5256351;28;20469;-50
2022/09/17 12:08:31;;;;;;;16.80;5.93;;;15.80;99.40;;;;;;5239117;28;20552;-51
2022/09/17 12:11:19;;;;;;;6.77;2.30;;;16.10;99.30;;;;;;5242600;28;20497;-50
2022/09/17 12:14:05;;;;;;;11.10;3.13;;;16.20;97.30;;;;;;5233127;28;20468;-49
2022/09/17 12:16:41;;;;;;;5.37;2.40;;;16.20;97.10;;;;;;5236033;28;20516;-49
2022/09/17 12:19:43;;;;;;;28.13;8.20;;;16.30;96.00;;;;;;5258569;28;20443;-49
2022/09/17 12:22:22;;;;;;;5.40;1.80;;;16.40;95.00;;;;;;5239872;28;20539;-51
2022/09/17 12:24:53;;;;;;;6.50;2.97;;;16.60;93.60;;;;;;5238770;28;20809;-51
2022/09/17 12:27:36;;;;;;;4.40;1.77;;;16.80;90.50;;;;;;5241739;28;20432;-49
2022/09/17 12:30:12;;;;;;;1.27;1.07;;;16.50;89.90;;;;;;5240657;28;20467;-49
2022/09/17 12:33:14;;;;;;;5.70;1.60;;;16.60;90.60;;;;;;5244836;28;20448;-49
2022/09/17 12:36:09;;;;;;;8.13;2.97;;;16.80;87.10;;;;;;5239711;28;20689;-48
2022/09/17 12:39:05;;;;;;;13.13;3.10;;;17.00;84.10;;;;;;5259617;28;20952;-49
2022/09/17 12:41:53;;;;;;;2.10;1.80;;;17.00;82.30;;;;;;5244213;28;20440;-49
2022/09/17 12:45:00;;;;;;;6.93;2.60;;;17.20;81.70;;;;;;5237316;28;20433;-48
2022/09/17 12:47:50;;;;;;;3.70;1.60;;;17.40;82.60;;;;;;5252270;28;20456;-49
2022/09/17 12:50:36;;;;;;;3.20;1.93;;;17.50;81.70;;;;;;5241816;28;20451;-52
2022/09/17 12:53:10;;;;;;;8.67;2.27;;;17.90;82.00;;;;;;5244954;28;20459;-49
2022/09/17 12:56:08;;;;;;;3.13;1.77;;;18.00;80.20;;;;;;5243093;28;20517;-50
2022/09/17 12:59:03;;;;;;;6.30;2.63;;;17.90;81.00;;;;;;5238089;28;20432;-50
2022/09/17 13:01:53;;;;;;;4.27;2.20;;;17.70;80.80;;;;;;5244988;28;20963;-50
2022/09/17 13:04:43;;;;;;;4.73;1.50;;;17.50;75.40;;;;;;5243824;28;20525;-48
2022/09/17 13:07:38;;;;;;;9.53;2.43;;;17.20;75.20;;;;;;5240593;28;20934;-51
2022/09/17 13:10:09;;;;;;;2.50;2.00;;;17.00;74.30;;;;;;5237662;28;20444;-51
2022/09/17 13:12:49;;;;;;;2.53;2.30;;;16.80;71.10;;;;;;5237172;28;20440;-50
2022/09/17 13:15:51;;;;;;;6.47;3.17;;;16.70;67.90;;;;;;5248786;28;20210;-47
2022/09/17 13:18:55;;;;;;;2.20;1.07;;;16.60;68.50;;;;;;5242484;28;20493;-51
2022/09/17 13:21:44;;;;;;;3.93;1.87;;;16.60;66.30;;;;;;5244187;28;20487;-48
2022/09/17 13:24:21;;;;;;;2.47;1.00;;;16.40;64.80;;;;;;5241736;28;20508;-50
2022/09/17 13:26:53;;;;;;;3.60;1.17;;;16.30;66.50;;;;;;5246554;28;20545;-51
2022/09/17 13:29:45;;;;;;;2.30;1.30;;;16.20;68.80;;;;;;5234626;28;20864;-49
2022/09/17 13:32:31;;;;;;;7.93;3.17;;;16.20;70.10;;;;;;5245653;28;20443;-48
2022/09/17 13:35:08;;;;;;;3.40;1.93;;;16.20;70.40;;;;;;5248412;28;20896;-51
2022/09/17 13:37:44;;;;;;;1.57;1.47;;;16.20;72.10;;;;;;5242240;28;20543;-49
2022/09/17 13:40:29;;;;;;;16.30;6.20;;;16.10;73.60;;;;;;5235259;28;20452;-48